createdAt,value
2018-10-05T00:00:40.099Z,66.30
2018-10-05T00:03:09.484Z,65.91
2018-10-05T00:05:38.789Z,65.58
2018-10-05T00:08:08.190Z,65.59
2018-10-05T00:10:37.592Z,65.92
2018-10-05T00:13:07.234Z,66.17
2018-10-05T00:15:36.607Z,66.25
2018-10-05T00:18:06.041Z,65.61
2018-10-05T00:20:35.473Z,65.20
2018-10-05T00:23:04.806Z,66.02
2018-10-05T00:25:34.207Z,66.10
2018-10-05T00:28:03.867Z,65.97
2018-10-05T00:30:33.216Z,65.69
2018-10-05T00:33:02.822Z,65.27
2018-10-05T00:35:32.224Z,65.50
2018-10-05T00:38:01.681Z,66.44
2018-10-05T00:40:30.923Z,66.73
2018-10-05T00:43:00.328Z,67.51
2018-10-05T00:45:29.732Z,68.43
2018-10-05T00:47:59.028Z,68.33
2018-10-05T00:50:28.327Z,68.25
2018-10-05T00:52:57.788Z,68.38
2018-10-05T00:55:27.234Z,68.51
2018-10-05T00:57:56.738Z,68.27
2018-10-05T01:00:26.144Z,67.27
2018-10-05T01:02:55.503Z,66.44
2018-10-05T01:05:24.944Z,66.21
2018-10-05T01:07:54.447Z,66.02
2018-10-05T01:10:23.637Z,65.87
2018-10-05T01:12:53.150Z,65.53
2018-10-05T01:15:22.556Z,66.13
2018-10-05T01:17:51.956Z,66.00
2018-10-05T01:20:21.457Z,65.72
2018-10-05T01:22:50.961Z,65.65
2018-10-05T01:25:20.255Z,66.02
2018-10-05T01:27:49.560Z,66.16
2018-10-05T01:30:18.963Z,66.22
2018-10-05T01:32:48.364Z,66.26
2018-10-05T01:35:17.765Z,66.33
2018-10-05T01:37:47.222Z,66.31
2018-10-05T01:40:16.570Z,66.25
2018-10-05T01:42:45.776Z,66.67
2018-10-05T01:45:15.169Z,66.85
2018-10-05T01:47:44.579Z,66.71
2018-10-05T01:50:13.869Z,66.71
2018-10-05T01:52:43.171Z,66.45
2018-10-05T01:55:12.570Z,66.27
2018-10-05T01:57:42.074Z,66.47
2018-10-05T02:00:11.579Z,66.17
2018-10-05T02:02:41.337Z,66.30
2018-10-05T02:05:10.945Z,66.50
2018-10-05T02:07:40.399Z,66.60
2018-10-05T02:10:09.818Z,66.82
2018-10-05T02:12:39.202Z,67.32
2018-10-05T02:15:08.605Z,66.74
2018-10-05T02:17:38.006Z,66.64
2018-10-05T02:20:07.305Z,66.99
2018-10-05T02:22:36.810Z,66.78
2018-10-05T02:25:06.103Z,66.90
2018-10-05T02:27:36.126Z,66.88
2018-10-05T02:30:05.527Z,67.21
2018-10-05T02:32:34.930Z,66.95
2018-10-05T02:35:04.698Z,66.51
2018-10-05T02:37:34.042Z,66.29
2018-10-05T02:40:03.287Z,66.42
2018-10-05T02:42:32.641Z,67.07
2018-10-05T02:45:01.938Z,67.02
2018-10-05T02:47:31.236Z,66.00
2018-10-05T02:50:00.641Z,65.40
2018-10-05T02:52:30.144Z,65.40
2018-10-05T02:54:59.549Z,66.03
2018-10-05T02:57:28.845Z,66.38
2018-10-05T02:59:58.238Z,66.76
2018-10-05T03:02:31.791Z,66.97
2018-10-05T03:05:01.152Z,67.80
2018-10-05T03:07:31.242Z,67.91
2018-10-05T03:10:01.911Z,68.48
2018-10-05T03:12:31.398Z,68.73
2018-10-05T03:15:00.801Z,68.70
2018-10-05T03:17:30.201Z,69.14
2018-10-05T03:19:59.599Z,69.41
2018-10-05T03:22:28.799Z,69.64
2018-10-05T03:24:58.040Z,69.83
2018-10-05T03:27:27.400Z,70.03
2018-10-05T03:29:56.802Z,69.53
2018-10-05T03:32:26.102Z,69.67
2018-10-05T03:34:55.503Z,69.71
2018-10-05T03:37:25.419Z,69.48
2018-10-05T03:39:55.535Z,69.43
2018-10-05T03:42:24.936Z,69.05
2018-10-05T03:44:54.239Z,68.80
2018-10-05T03:47:23.740Z,68.93
2018-10-05T03:49:53.144Z,69.00
2018-10-05T03:52:22.543Z,68.41
2018-10-05T03:54:51.844Z,68.43
2018-10-05T03:57:21.028Z,68.49
2018-10-05T03:59:50.444Z,68.06
2018-10-05T04:02:19.844Z,67.89
2018-10-05T04:04:49.245Z,68.12
2018-10-05T04:07:18.547Z,68.04
2018-10-05T04:09:47.950Z,68.56
2018-10-05T04:12:17.348Z,68.54
2018-10-05T04:14:46.652Z,68.91
2018-10-05T04:17:16.049Z,69.12
2018-10-05T04:19:45.530Z,69.29
2018-10-05T04:22:19.154Z,69.62
2018-10-05T04:24:48.556Z,69.68
2018-10-05T04:27:18.032Z,69.55
2018-10-05T04:29:47.462Z,69.97
2018-10-05T04:32:16.779Z,69.92
2018-10-05T04:34:46.374Z,70.04
2018-10-05T04:37:16.078Z,69.80
2018-10-05T04:39:45.404Z,69.65
2018-10-05T04:42:14.777Z,69.95
2018-10-05T04:44:43.990Z,69.87
2018-10-05T04:47:13.786Z,69.36
2018-10-05T04:49:43.202Z,69.14
2018-10-05T04:52:12.496Z,69.05
2018-10-05T04:54:41.774Z,69.03
2018-10-05T04:57:11.191Z,68.93
2018-10-05T04:59:40.494Z,69.04
2018-10-05T05:02:09.889Z,69.16
2018-10-05T05:04:39.394Z,68.97
2018-10-05T05:07:09.001Z,69.25
2018-10-05T05:09:38.402Z,69.17
2018-10-05T05:12:07.866Z,69.27
2018-10-05T05:14:37.417Z,69.12
2018-10-05T05:17:06.927Z,68.61
2018-10-05T05:19:36.376Z,68.29
2018-10-05T05:22:05.869Z,68.42
2018-10-05T05:24:35.326Z,68.61
2018-10-05T05:27:04.831Z,68.23
2018-10-05T05:29:34.232Z,68.58
2018-10-05T05:32:03.736Z,68.76
2018-10-05T05:34:33.070Z,68.86
2018-10-05T05:37:02.437Z,68.46
2018-10-05T05:39:31.838Z,68.17
2018-10-05T05:42:01.168Z,68.53
2018-10-05T05:44:30.440Z,68.75
2018-10-05T05:46:59.877Z,68.66
2018-10-05T05:49:29.137Z,68.55
2018-10-05T05:51:58.549Z,68.80
2018-10-05T05:54:27.959Z,68.80
2018-10-05T05:56:57.136Z,69.04
2018-10-05T05:59:26.641Z,68.98
2018-10-05T06:01:56.117Z,69.14
2018-10-05T06:04:25.548Z,69.10
2018-10-05T06:06:54.951Z,69.39
2018-10-05T06:09:24.351Z,69.41
2018-10-05T06:11:53.649Z,69.70
2018-10-05T06:14:22.952Z,69.85
2018-10-05T06:16:52.353Z,69.79
2018-10-05T06:19:21.757Z,69.48
2018-10-05T06:21:51.302Z,69.46
2018-10-05T06:24:20.557Z,69.94
2018-10-05T06:26:49.961Z,70.87
2018-10-05T06:29:19.363Z,71.37
2018-10-05T06:31:48.865Z,71.38
2018-10-05T06:34:18.473Z,71.85
2018-10-05T06:36:47.782Z,71.58
2018-10-05T06:39:17.174Z,71.58
2018-10-05T06:41:46.788Z,71.38
2018-10-05T06:44:16.074Z,71.31
2018-10-05T06:46:45.583Z,71.52
2018-10-05T06:49:14.985Z,70.35
2018-10-05T06:51:44.386Z,71.36
2018-10-05T06:54:13.686Z,71.16
2018-10-05T06:56:42.990Z,70.83
2018-10-05T06:59:12.494Z,69.27
2018-10-05T07:01:42.025Z,69.35
2018-10-05T07:04:11.396Z,69.40
2018-10-05T07:06:40.797Z,69.74
2018-10-05T07:09:10.097Z,69.46
2018-10-05T07:11:39.349Z,69.05
2018-10-05T07:14:08.798Z,68.63
2018-10-05T07:16:38.180Z,68.17
2018-10-05T07:19:07.703Z,68.34
2018-10-05T07:21:37.106Z,67.91
2018-10-05T07:24:06.507Z,68.04
2018-10-05T07:26:35.842Z,68.22
2018-10-05T07:29:05.209Z,68.17
2018-10-05T07:31:34.448Z,68.82
2018-10-05T07:34:03.967Z,69.08
2018-10-05T07:36:33.416Z,68.59
2018-10-05T07:39:02.815Z,68.58
2018-10-05T07:41:32.217Z,68.37
2018-10-05T07:44:01.704Z,67.78
2018-10-05T07:46:31.328Z,67.64
2018-10-05T07:49:00.730Z,67.48
2018-10-05T07:51:30.951Z,67.01
2018-10-05T07:54:00.176Z,67.73
2018-10-05T07:56:29.651Z,68.10
2018-10-05T07:58:58.955Z,67.58
2018-10-05T08:01:28.361Z,67.86
2018-10-05T08:03:57.754Z,67.82
2018-10-05T08:06:26.935Z,68.56
2018-10-05T08:08:56.354Z,69.39
2018-10-05T08:11:25.756Z,69.99
2018-10-05T08:13:55.156Z,70.10
2018-10-05T08:16:24.451Z,70.32
2018-10-05T08:18:53.858Z,70.45
2018-10-05T08:21:23.166Z,69.75
2018-10-05T08:23:52.629Z,68.37
2018-10-05T08:26:21.860Z,67.00
2018-10-05T08:28:51.157Z,66.78
2018-10-05T08:31:20.560Z,67.89
2018-10-05T08:33:50.002Z,66.56
2018-10-05T08:36:19.361Z,64.39
2018-10-05T08:38:48.699Z,59.99
2018-10-05T08:41:18.065Z,56.91
2018-10-05T08:43:47.368Z,53.54
2018-10-05T08:46:16.766Z,52.25
2018-10-05T08:48:46.169Z,51.10
2018-10-05T08:51:15.569Z,51.03
2018-10-05T08:53:44.971Z,48.98
2018-10-05T08:56:14.165Z,47.83
2018-10-05T08:58:43.406Z,47.96
2018-10-05T09:01:12.768Z,47.14
2018-10-05T09:03:42.167Z,46.78
2018-10-05T09:06:11.570Z,45.92
2018-10-05T09:08:40.867Z,45.86
2018-10-05T09:11:10.386Z,44.67
2018-10-05T09:13:39.879Z,45.10
2018-10-05T09:16:09.233Z,45.62
2018-10-05T09:18:38.886Z,44.03
2018-10-05T09:21:08.399Z,44.66
2018-10-05T09:23:37.793Z,44.93
2018-10-05T09:26:07.092Z,44.48
2018-10-05T09:28:36.780Z,44.70
2018-10-05T09:31:06.207Z,45.28
2018-10-05T09:33:35.520Z,44.39
2018-10-05T09:36:05.011Z,44.81
2018-10-05T09:38:34.460Z,43.92
2018-10-05T09:41:03.712Z,43.83
2018-10-05T09:43:33.114Z,43.48
2018-10-05T09:46:02.618Z,42.77
2018-10-05T09:48:32.126Z,42.89
2018-10-05T09:51:01.628Z,43.16
2018-10-05T09:53:31.028Z,42.18
2018-10-05T09:56:00.430Z,41.69
2018-10-05T09:58:29.833Z,41.74
2018-10-05T10:02:08.253Z,40.92
2018-10-05T10:04:37.733Z,41.21
2018-10-05T10:07:07.151Z,41.09
2018-10-05T10:09:36.661Z,40.20
2018-10-05T10:12:06.171Z,40.13
2018-10-05T10:14:40.330Z,41.27
2018-10-05T10:17:09.597Z,38.65
2018-10-05T10:19:39.081Z,39.18
2018-10-05T10:22:08.692Z,39.05
2018-10-05T10:24:38.194Z,39.24
2018-10-05T10:27:07.593Z,38.18
2018-10-05T10:29:37.098Z,37.61
2018-10-05T10:32:06.705Z,39.25
2018-10-05T10:34:36.159Z,38.52
2018-10-05T10:37:05.597Z,39.41
2018-10-05T10:39:34.857Z,37.45
2018-10-05T10:42:04.224Z,37.40
2018-10-05T10:44:33.716Z,37.33
2018-10-05T10:47:03.091Z,36.93
2018-10-05T10:49:32.518Z,37.41
2018-10-05T10:52:02.023Z,37.74
2018-10-05T10:54:31.527Z,37.20
2018-10-05T10:57:01.032Z,37.87
2018-10-05T10:59:30.432Z,38.67
2018-10-05T11:02:00.043Z,36.84
2018-10-05T11:04:29.491Z,36.31
2018-10-05T11:06:58.843Z,36.36
2018-10-05T11:09:28.143Z,38.57
2018-10-05T11:11:57.544Z,36.90
2018-10-05T11:14:26.850Z,36.52
2018-10-05T11:16:56.320Z,36.73
2018-10-05T11:19:25.669Z,37.67
2018-10-05T11:21:55.049Z,37.35
2018-10-05T11:24:24.277Z,36.67
2018-10-05T11:26:53.752Z,39.16
2018-10-05T11:29:23.151Z,38.66
2018-10-05T11:31:52.452Z,36.12
2018-10-05T11:34:21.930Z,36.86
2018-10-05T11:36:51.356Z,35.43
2018-10-05T11:39:20.760Z,35.49
2018-10-05T11:41:49.988Z,36.25
2018-10-05T11:44:19.467Z,33.58
2018-10-05T11:46:48.862Z,35.59
2018-10-05T11:49:18.265Z,35.52
2018-10-05T11:51:48.075Z,35.23
2018-10-05T11:54:17.579Z,35.72
2018-10-05T11:56:47.156Z,35.45
2018-10-05T11:59:16.587Z,35.48
2018-10-05T12:01:46.121Z,35.55
2018-10-05T12:04:15.495Z,33.02
2018-10-05T12:06:45.073Z,34.25
2018-10-05T12:09:14.306Z,33.99
2018-10-05T12:11:43.644Z,33.41
2018-10-05T12:14:13.103Z,33.78
2018-10-05T12:16:42.504Z,34.08
2018-10-05T12:19:11.714Z,35.60
2018-10-05T12:21:41.220Z,34.22
2018-10-05T12:24:10.711Z,32.64
2018-10-05T12:26:40.254Z,34.11
2018-10-05T12:29:09.719Z,32.26
2018-10-05T12:31:39.121Z,34.00
2018-10-05T12:34:08.625Z,35.57
2018-10-05T12:36:38.077Z,32.21
2018-10-05T12:39:08.519Z,31.34
2018-10-05T12:41:38.636Z,32.83
2018-10-05T12:44:08.497Z,32.83
2018-10-05T12:46:38.217Z,32.33
2018-10-05T12:49:07.601Z,32.28
2018-10-05T12:51:36.996Z,33.40
2018-10-05T12:54:06.503Z,32.27
2018-10-05T12:56:35.905Z,31.98
2018-10-05T12:59:05.409Z,31.69
2018-10-05T13:01:34.913Z,31.80
2018-10-05T13:04:04.418Z,31.46
2018-10-05T13:06:33.845Z,32.07
2018-10-05T13:09:03.528Z,31.91
2018-10-05T13:11:33.133Z,30.91
2018-10-05T13:14:02.844Z,30.40
2018-10-05T13:16:32.245Z,30.07
2018-10-05T13:21:29.901Z,31.71
2018-10-05T13:23:59.236Z,31.55
2018-10-05T13:26:28.532Z,31.55
2018-10-05T13:28:57.922Z,32.26
2018-10-05T13:31:27.236Z,31.79
2018-10-05T13:33:56.656Z,31.02
2018-10-05T13:36:26.031Z,31.28
2018-10-05T13:38:55.525Z,30.49
2018-10-05T13:41:24.928Z,32.51
2018-10-05T13:43:54.636Z,31.54
2018-10-05T13:46:24.111Z,31.07
2018-10-05T13:48:53.646Z,32.39
2018-10-05T13:51:23.147Z,31.77
2018-10-05T13:53:52.552Z,31.29
2018-10-05T13:56:21.949Z,30.70
2018-10-05T13:58:51.583Z,31.72
2018-10-05T14:01:21.167Z,31.71
2018-10-05T14:03:50.523Z,31.39
2018-10-05T14:06:19.975Z,30.55
2018-10-05T14:08:49.370Z,30.89
2018-10-05T14:11:18.582Z,31.14
2018-10-05T14:13:47.971Z,30.54
2018-10-05T14:16:17.380Z,30.34
2018-10-05T14:18:46.776Z,30.45
2018-10-05T14:21:16.280Z,30.47
2018-10-05T14:23:45.639Z,30.34
2018-10-05T14:26:15.196Z,31.74
2018-10-05T14:28:44.691Z,30.96
2018-10-05T14:33:42.268Z,30.09
2018-10-05T14:36:11.770Z,31.45
2018-10-05T14:38:40.976Z,31.04
2018-10-05T14:41:10.472Z,31.44
2018-10-05T14:43:39.873Z,29.71
2018-10-05T14:46:09.380Z,30.31
2018-10-05T14:48:38.779Z,32.61
2018-10-05T14:51:08.385Z,31.43
2018-10-05T14:53:37.687Z,31.15
2018-10-05T14:56:06.923Z,30.97
2018-10-05T14:58:36.389Z,30.57
2018-10-05T15:01:05.789Z,31.04
2018-10-05T15:03:35.089Z,29.99
2018-10-05T15:06:04.434Z,30.26
2018-10-05T15:08:33.789Z,32.07
2018-10-05T15:11:03.186Z,31.28
2018-10-05T15:13:32.608Z,31.80
2018-10-05T15:16:01.915Z,31.86
2018-10-05T15:18:31.191Z,31.75
2018-10-05T15:21:00.699Z,31.22
2018-10-05T15:23:30.099Z,30.87
2018-10-05T15:25:59.398Z,32.02
2018-10-05T15:28:28.603Z,31.61
2018-10-05T15:30:57.998Z,32.79
2018-10-05T15:33:27.403Z,32.07
2018-10-05T15:35:56.700Z,32.94
2018-10-05T15:38:26.205Z,34.02
2018-10-05T15:40:55.708Z,33.33
2018-10-05T15:43:25.350Z,32.93
2018-10-05T15:46:00.151Z,33.81
2018-10-05T15:48:29.531Z,35.01
2018-10-05T15:50:58.948Z,34.07
2018-10-05T15:53:28.352Z,35.49
2018-10-05T15:55:57.707Z,36.30
2018-10-05T15:58:27.901Z,36.79
2018-10-05T16:00:57.480Z,36.71
2018-10-05T16:03:27.017Z,37.88
2018-10-05T16:05:56.616Z,37.44
2018-10-05T16:08:25.915Z,38.43
2018-10-05T16:11:01.847Z,39.28
2018-10-05T16:13:31.248Z,39.80
2018-10-05T16:16:00.652Z,40.36
2018-10-05T16:18:29.855Z,40.73
2018-10-05T16:20:59.248Z,42.15
2018-10-05T16:23:28.424Z,41.69
2018-10-05T16:25:57.883Z,41.43
2018-10-05T16:28:27.250Z,42.61
2018-10-05T16:31:00.836Z,42.89
2018-10-05T16:33:30.253Z,44.20
2018-10-05T16:35:59.757Z,44.24
2018-10-05T16:38:29.237Z,43.31
2018-10-05T16:40:58.666Z,43.52
2018-10-05T16:43:28.065Z,44.28
2018-10-05T16:45:57.467Z,44.18
2018-10-05T16:48:26.802Z,45.01
2018-10-05T16:50:56.270Z,45.99
2018-10-05T16:53:25.775Z,45.67
2018-10-05T16:55:56.611Z,46.62
2018-10-05T16:58:25.807Z,46.30
2018-10-05T17:00:55.135Z,46.53
2018-10-05T17:03:24.410Z,46.36
2018-10-05T17:05:54.833Z,47.49
2018-10-05T17:08:24.131Z,48.13
2018-10-05T17:10:53.542Z,48.17
2018-10-05T17:13:22.754Z,47.89
2018-10-05T17:15:52.133Z,48.07
2018-10-05T17:18:21.350Z,48.05
2018-10-05T17:20:50.703Z,48.55
2018-10-05T17:23:20.027Z,47.99
2018-10-05T17:25:49.434Z,47.80
2018-10-05T17:28:18.750Z,47.42
2018-10-05T17:30:48.237Z,47.52
2018-10-05T17:33:17.641Z,47.74
2018-10-05T17:35:47.053Z,48.30
2018-10-05T17:38:16.444Z,48.86
2018-10-05T17:40:45.845Z,49.18
2018-10-05T17:43:15.285Z,49.91
2018-10-05T17:45:44.961Z,50.05
2018-10-05T17:48:16.406Z,51.17
2018-10-05T17:50:45.911Z,51.40
2018-10-05T17:53:16.202Z,51.30
2018-10-05T17:55:46.119Z,51.19
2018-10-05T17:58:15.608Z,51.04
2018-10-05T18:00:47.103Z,50.91
2018-10-05T18:03:16.506Z,51.74
2018-10-05T18:05:46.208Z,51.41
2018-10-05T18:08:15.732Z,51.37
2018-10-05T18:10:45.429Z,51.03
2018-10-05T18:13:14.730Z,51.30
2018-10-05T18:15:44.231Z,50.94
2018-10-05T18:18:13.840Z,50.91
2018-10-05T18:20:43.235Z,50.79
2018-10-05T18:23:13.154Z,52.13
2018-10-05T18:25:43.683Z,51.80
2018-10-05T18:28:13.021Z,52.84
2018-10-05T18:30:42.395Z,52.77
2018-10-05T18:33:13.013Z,52.72
2018-10-05T18:35:42.928Z,53.03
2018-10-05T18:38:13.096Z,54.59
2018-10-05T18:40:42.961Z,54.75
2018-10-05T18:43:13.425Z,54.65
2018-10-05T18:45:42.687Z,54.95
2018-10-05T18:48:11.981Z,55.64
2018-10-05T18:50:41.492Z,55.56
2018-10-05T18:53:11.202Z,55.56
2018-10-05T18:55:40.601Z,55.35
2018-10-05T18:58:10.070Z,55.86
2018-10-05T19:00:39.559Z,55.90
2018-10-05T19:03:09.012Z,56.32
2018-10-05T19:05:38.517Z,56.47
2018-10-05T19:08:08.020Z,56.59
2018-10-05T19:10:38.461Z,56.87
2018-10-05T19:13:09.078Z,56.39
2018-10-05T19:15:38.786Z,56.59
2018-10-05T19:18:10.655Z,57.02
2018-10-05T19:20:40.253Z,57.70
2018-10-05T19:23:09.757Z,57.87
2018-10-05T19:25:39.224Z,57.61
2018-10-05T19:28:08.560Z,57.41
2018-10-05T19:30:38.027Z,57.65
2018-10-05T19:33:07.468Z,57.47
2018-10-05T19:35:36.755Z,58.16
2018-10-05T19:38:06.374Z,58.19
2018-10-05T19:40:35.987Z,57.65
2018-10-05T19:43:05.483Z,58.19
2018-10-05T19:45:34.988Z,58.83
2018-10-05T19:48:04.441Z,58.46
2018-10-05T19:50:33.793Z,58.45
2018-10-05T19:53:03.238Z,59.20
2018-10-05T19:55:33.825Z,59.59
2018-10-05T19:58:03.331Z,59.11
2018-10-05T20:00:32.731Z,59.55
2018-10-05T20:03:02.236Z,59.60
2018-10-05T20:05:31.547Z,59.38
2018-10-05T20:08:00.863Z,60.11
2018-10-05T20:10:30.307Z,59.83
2018-10-05T20:12:59.899Z,60.00
2018-10-05T20:15:29.348Z,59.81
2018-10-05T20:17:58.978Z,59.97
2018-10-05T20:20:28.254Z,60.09
2018-10-05T20:22:57.948Z,60.25
2018-10-05T20:25:27.181Z,60.29
2018-10-05T20:27:56.552Z,60.47
2018-10-05T20:30:25.771Z,61.15
2018-10-05T20:32:55.367Z,61.88
2018-10-05T20:35:24.974Z,61.45
2018-10-05T20:37:54.495Z,62.04
2018-10-05T20:40:23.884Z,61.69
2018-10-05T20:42:53.196Z,61.05
2018-10-05T20:45:22.786Z,62.02
2018-10-05T20:47:52.271Z,61.89
2018-10-05T20:50:21.556Z,61.89
2018-10-05T20:52:50.935Z,61.25
2018-10-05T20:55:20.293Z,62.31
2018-10-05T20:57:49.972Z,63.19
2018-10-05T21:00:19.404Z,64.32
2018-10-05T21:02:48.909Z,65.14
2018-10-05T21:05:18.208Z,63.53
2018-10-05T21:07:47.609Z,63.04
2018-10-05T21:10:17.591Z,62.85
2018-10-05T21:12:47.131Z,63.36
2018-10-05T21:15:16.462Z,63.25
2018-10-05T21:17:45.831Z,62.68
2018-10-05T21:20:16.631Z,62.57
2018-10-05T21:22:46.170Z,63.19
2018-10-05T21:25:15.859Z,62.70
2018-10-05T21:27:45.290Z,62.87
2018-10-05T21:30:14.889Z,63.55
2018-10-05T21:32:44.572Z,63.67
2018-10-05T21:35:14.205Z,64.54
2018-10-05T21:37:43.639Z,64.20
2018-10-05T21:40:13.218Z,63.75
2018-10-05T21:42:42.820Z,63.15
2018-10-05T21:45:13.453Z,63.50
2018-10-05T21:47:45.018Z,63.24
2018-10-05T21:50:14.521Z,63.61
2018-10-05T21:52:44.012Z,63.31
2018-10-05T21:55:13.518Z,63.77
2018-10-05T21:57:43.097Z,63.27
2018-10-05T22:00:12.730Z,63.43
2018-10-05T22:02:42.229Z,64.07
2018-10-05T22:05:11.496Z,64.34
2018-10-05T22:07:41.138Z,64.22
2018-10-05T22:10:11.462Z,63.77
2018-10-05T22:12:40.933Z,63.61
2018-10-05T22:15:10.249Z,63.80
2018-10-05T22:17:39.771Z,62.82
2018-10-05T22:20:10.256Z,63.08
2018-10-05T22:22:39.746Z,63.11
2018-10-05T22:25:09.066Z,63.69
2018-10-05T22:27:38.708Z,64.48
2018-10-05T22:30:08.570Z,64.59
2018-10-05T22:32:38.025Z,63.78
2018-10-05T22:35:07.479Z,64.24
2018-10-05T22:37:36.890Z,63.93
2018-10-05T22:40:06.434Z,64.11
2018-10-05T22:42:36.143Z,64.29
2018-10-05T22:45:05.548Z,63.73
2018-10-05T22:47:34.945Z,64.11
2018-10-05T22:50:04.450Z,64.55
2018-10-05T22:52:33.861Z,64.18
2018-10-05T22:55:03.358Z,64.29
2018-10-05T22:57:32.863Z,64.08
2018-10-05T23:00:02.469Z,64.01
2018-10-05T23:02:32.048Z,63.96
2018-10-05T23:05:01.390Z,64.28
2018-10-05T23:07:31.083Z,65.54
2018-10-05T23:10:00.391Z,65.64
2018-10-05T23:12:29.960Z,65.54
2018-10-05T23:14:59.503Z,65.40
2018-10-05T23:17:28.815Z,64.93
2018-10-05T23:19:58.298Z,64.79
2018-10-05T23:22:28.928Z,65.05
2018-10-05T23:24:58.415Z,65.36
2018-10-05T23:27:28.244Z,64.68
2018-10-05T23:29:57.696Z,65.10
2018-10-05T23:32:28.174Z,65.49
2018-10-05T23:34:57.576Z,65.42
2018-10-05T23:37:27.080Z,65.98
2018-10-05T23:39:56.788Z,65.37
2018-10-05T23:42:26.293Z,64.51
2018-10-05T23:44:55.741Z,65.38
2018-10-05T23:47:25.095Z,65.32
2018-10-05T23:49:54.548Z,65.36
2018-10-05T23:52:37.168Z,65.33
2018-10-05T23:55:07.023Z,65.53
2018-10-05T23:57:37.197Z,65.96
